メインページ
METAR-TAF:

METAR-TAF

空港 :

セロ・モレノ国際空港

アントファガスタ, チリ

緯度: 23-26S, 経度: 070-26W, 海抜: 135m

現時点の気象観測

当レポートは51分前の03:00(UTC)に作成
南/南東の風 4kt
気温 17°C
湿度 82%
気圧 1015 hPa
視程10km以上
1,500メートル以下は雲なし、積乱雲なし

METAR: SCFA 250300Z 15004KT CAVOK 17/14 Q1015 NOSIG

時間: 00:51 (03:51 UTC)

予報

当レポートは5時間10分前の22:41(UTC)に作成
予報は25日の 00時(UTC)から 25日の 24時(UTC)まで有効
の風 5kt
視程10km以上
高度1500ftの雲はほとんどない
25日の 06時(UTC)から 25日の 08時(UTC)まで徐々に
北/北東の風 4kt
25日の 12時(UTC)から 25日の 14時(UTC)まで徐々に
視程10km以上
1,500メートル以下は雲なし、積乱雲なし
25日の 16時(UTC)から 25日の 18時(UTC)まで徐々に
南西の風 12kt
25日の 22時(UTC)から 25日の 24時(UTC)まで徐々に
高度1500ftの雲はほとんどない

TAF: SCFA 242241Z 2500/2524 18005KT 9999 FEW015 TN16/2506Z TX22/2516Z BECMG 2506/2508 03004KT BECMG 2512/2514 CAVOK BECMG 2516/2518 22012KT BECMG 2522/2524 FEW015

4,000以上の空港の気象観測と天気予報(METAR報とTAF報)

利用可能な観測所は地図上に黄色い丸と赤い丸で示す。

丸の上にカーソルを重ねると観測所名を参照できる。

次にクリックすると気象観測と天気予報を参照できる。

マップの切り替え:黒色「×」印の緑ボタンをクリックして拡大、「-」印の緑ボタンをクリックして縮小、緑色の三角印をクリックして隣りの地図に切り替え


METAR-TAF: